Time;durP1;ratioP1;P1;durP2;ratioP2;P2;SDS_P1;SDS_P2;PMS_P1;PMS_P2;Temp;Humidity;BMP_temperature;BMP_pressure;BME280_temperature;BME280_humidity;BME280_pressure;Samples;Min_cycle;Max_cycle;Signal;HPM_P1;HPM_P2
2024/03/03 00:00:47;;;;;;;50.23;36.57;;;;;;;;;;6217412;23;20227;-82
2024/03/03 00:03:15;;;;;;;52.53;36.60;;;;;;;;;;6217070;23;20267;-84
2024/03/03 00:05:45;;;;;;;49.47;35.33;;;;;;;;;;6193009;23;20664;-83
2024/03/03 00:08:12;;;;;;;49.50;34.80;;;;;;;;;;6243857;23;20204;-83
2024/03/03 00:10:39;;;;;;;50.73;35.07;;;;;;;;;;6243722;23;20168;-83
2024/03/03 00:13:07;;;;;;;50.27;35.63;;;;;;;;;;6187561;23;20176;-82
2024/03/03 00:15:35;;;;;;;50.13;34.33;;;;;;;;;;6187413;23;20185;-81
2024/03/03 00:18:03;;;;;;;47.70;33.97;;;;;;;;;;6187418;23;20169;-82
2024/03/03 00:20:30;;;;;;;47.13;33.13;;;;;;;;;;6187311;23;20200;-82
2024/03/03 00:23:01;;;;;;;38.23;29.57;;;;;;;;;;6187214;23;20235;-82
2024/03/03 00:25:32;;;;;;;41.00;28.10;;;;;;;;;;6163827;23;20166;-81
2024/03/03 00:27:59;;;;;;;34.20;26.13;;;;;;;;;;6213836;23;20232;-82
2024/03/03 00:30:27;;;;;;;37.33;27.27;;;;;;;;;;6187749;23;20510;-83
2024/03/03 00:32:57;;;;;;;35.83;25.80;;;;;;;;;;6188143;23;20585;-84
2024/03/03 00:35:24;;;;;;;36.13;26.63;;;;;;;;;;6189099;23;20182;-83
2024/03/03 00:37:52;;;;;;;35.10;26.07;;;;;;;;;;6187993;23;20193;-81
2024/03/03 00:40:22;;;;;;;36.33;26.47;;;;;;;;;;6215030;23;20181;-81
2024/03/03 00:42:49;;;;;;;32.23;24.33;;;;;;;;;;6188359;23;20542;-80
2024/03/03 00:45:17;;;;;;;38.00;27.67;;;;;;;;;;6189474;23;20248;-84
2024/03/03 00:47:45;;;;;;;39.40;28.73;;;;;;;;;;6188502;23;20171;-82
2024/03/03 00:50:14;;;;;;;39.17;30.00;;;;;;;;;;6188297;23;20252;-82
2024/03/03 00:52:44;;;;;;;39.90;30.70;;;;;;;;;;6189291;23;20627;-82
2024/03/03 00:55:12;;;;;;;43.17;30.80;;;;;;;;;;6164156;23;20192;-83
2024/03/03 00:57:40;;;;;;;42.67;31.37;;;;;;;;;;6187962;23;20216;-82
2024/03/03 01:00:09;;;;;;;44.77;32.73;;;;;;;;;;6189188;23;20170;-84
2024/03/03 01:02:38;;;;;;;43.03;31.70;;;;;;;;;;6164163;23;20169;-82
2024/03/03 01:05:08;;;;;;;42.80;32.27;;;;;;;;;;6164266;23;20174;-82
2024/03/03 01:07:34;;;;;;;46.73;33.47;;;;;;;;;;6188071;23;20169;-82
2024/03/03 01:10:04;;;;;;;42.43;32.30;;;;;;;;;;6188316;23;20203;-84
2024/03/03 01:12:32;;;;;;;46.17;32.23;;;;;;;;;;6211362;23;20203;-82
2024/03/03 01:15:00;;;;;;;43.50;31.90;;;;;;;;;;6217726;23;20196;-83
2024/03/03 01:17:28;;;;;;;45.93;31.43;;;;;;;;;;6243971;23;20191;-85
2024/03/03 01:19:56;;;;;;;44.87;32.80;;;;;;;;;;6192400;23;20169;-81
2024/03/03 01:22:25;;;;;;;45.70;32.23;;;;;;;;;;6217133;23;20204;-83
2024/03/03 01:24:52;;;;;;;48.33;32.93;;;;;;;;;;6217130;23;20181;-85
2024/03/03 01:27:19;;;;;;;43.27;31.63;;;;;;;;;;6192653;23;20177;-85
2024/03/03 01:29:50;;;;;;;45.57;33.03;;;;;;;;;;6217208;23;20169;-81
2024/03/03 01:32:25;;;;;;;42.67;31.97;;;;;;;;;;6218894;23;20235;-81
2024/03/03 01:34:55;;;;;;;45.77;33.03;;;;;;;;;;6218309;23;20181;-83
2024/03/03 01:37:23;;;;;;;45.80;31.60;;;;;;;;;;6219487;23;20164;-84
2024/03/03 01:39:53;;;;;;;46.43;32.03;;;;;;;;;;6245378;23;20164;-85
2024/03/03 01:42:21;;;;;;;48.07;33.20;;;;;;;;;;6194417;23;20195;-83
2024/03/03 01:44:48;;;;;;;44.77;32.10;;;;;;;;;;6218849;23;20172;-82
2024/03/03 01:47:15;;;;;;;44.50;32.67;;;;;;;;;;6194090;23;20208;-85
2024/03/03 01:49:45;;;;;;;43.67;31.43;;;;;;;;;;6218682;23;20172;-82
2024/03/03 01:52:19;;;;;;;41.93;30.87;;;;;;;;;;6218850;23;20167;-83
2024/03/03 01:54:47;;;;;;;43.40;31.50;;;;;;;;;;6244954;23;20183;-81
2024/03/03 01:57:16;;;;;;;44.53;31.60;;;;;;;;;;6218526;23;20165;-84
2024/03/03 01:59:45;;;;;;;43.43;31.40;;;;;;;;;;6218638;23;20173;-84
2024/03/03 02:02:19;;;;;;;41.20;31.60;;;;;;;;;;6218635;23;20165;-85
2024/03/03 02:04:47;;;;;;;41.43;30.27;;;;;;;;;;6218748;23;20610;-83
2024/03/03 02:07:15;;;;;;;43.33;31.23;;;;;;;;;;6194004;23;20169;-83
2024/03/03 02:09:44;;;;;;;43.17;29.80;;;;;;;;;;6193687;23;20187;-83
2024/03/03 02:12:13;;;;;;;39.83;28.70;;;;;;;;;;6244823;23;20197;-82
2024/03/03 02:14:44;;;;;;;44.53;30.23;;;;;;;;;;6245263;23;20199;-80
2024/03/03 02:17:13;;;;;;;38.40;28.67;;;;;;;;;;6218810;23;20169;-83
2024/03/03 02:19:41;;;;;;;39.23;28.57;;;;;;;;;;6193886;23;20169;-85
2024/03/03 02:22:09;;;;;;;39.53;29.53;;;;;;;;;;6218631;23;20663;-83
2024/03/03 02:24:37;;;;;;;40.47;28.73;;;;;;;;;;6218301;23;20195;-84
2024/03/03 02:27:09;;;;;;;39.10;28.23;;;;;;;;;;6193874;23;20256;-86
2024/03/03 02:29:36;;;;;;;39.80;28.53;;;;;;;;;;6218427;23;20199;-83
2024/03/03 02:32:07;;;;;;;39.27;28.37;;;;;;;;;;6245173;23;20219;-86
2024/03/03 02:34:36;;;;;;;39.00;28.00;;;;;;;;;;6193825;23;20169;-85
2024/03/03 02:37:03;;;;;;;35.40;26.13;;;;;;;;;;6218171;23;20168;-84
2024/03/03 02:39:30;;;;;;;37.77;26.70;;;;;;;;;;6193480;23;20670;-82
2024/03/03 02:41:58;;;;;;;36.67;26.60;;;;;;;;;;6193221;23;20176;-84
2024/03/03 02:44:25;;;;;;;34.47;25.70;;;;;;;;;;6218416;23;20173;-81
2024/03/03 02:46:53;;;;;;;36.77;27.20;;;;;;;;;;6193271;23;20173;-84
2024/03/03 02:49:21;;;;;;;34.17;26.43;;;;;;;;;;6193146;23;20169;-82
2024/03/03 02:51:48;;;;;;;34.57;26.63;;;;;;;;;;6219305;23;20173;-83
2024/03/03 02:54:16;;;;;;;35.53;26.33;;;;;;;;;;6218218;23;20227;-83
2024/03/03 02:56:44;;;;;;;35.57;25.70;;;;;;;;;;6218080;23;20185;-84
2024/03/03 02:59:12;;;;;;;35.13;26.33;;;;;;;;;;6217674;23;20250;-85
2024/03/03 03:01:39;;;;;;;33.87;25.23;;;;;;;;;;6218631;23;20682;-83
2024/03/03 03:04:08;;;;;;;36.77;25.80;;;;;;;;;;6193377;23;20168;-83
2024/03/03 03:06:36;;;;;;;34.47;25.23;;;;;;;;;;6218347;23;20252;-85
2024/03/03 03:09:04;;;;;;;33.00;25.20;;;;;;;;;;6193012;23;20252;-81
2024/03/03 03:11:31;;;;;;;33.53;24.50;;;;;;;;;;6218261;23;20205;-84
2024/03/03 03:14:01;;;;;;;34.43;25.50;;;;;;;;;;6218382;23;20672;-86
2024/03/03 03:16:29;;;;;;;30.67;23.83;;;;;;;;;;6193527;23;20220;-82
2024/03/03 03:18:56;;;;;;;32.57;23.60;;;;;;;;;;6193313;23;20184;-83
2024/03/03 03:21:27;;;;;;;31.87;23.90;;;;;;;;;;6193229;23;20196;-84
2024/03/03 03:23:57;;;;;;;27.83;21.77;;;;;;;;;;6218947;23;20614;-82
2024/03/03 03:26:27;;;;;;;28.30;21.53;;;;;;;;;;6217528;23;20169;-84
2024/03/03 03:28:56;;;;;;;24.80;19.27;;;;;;;;;;6218142;23;20173;-84
2024/03/03 03:31:23;;;;;;;22.13;17.20;;;;;;;;;;6217862;23;20169;-83
2024/03/03 03:33:51;;;;;;;20.00;15.30;;;;;;;;;;6243990;23;20172;-82
2024/03/03 03:36:21;;;;;;;21.37;15.77;;;;;;;;;;6244398;23;20429;-83
2024/03/03 03:38:50;;;;;;;20.73;15.13;;;;;;;;;;6192898;23;20161;-84
2024/03/03 03:41:17;;;;;;;21.13;14.53;;;;;;;;;;6217489;23;20166;-84
2024/03/03 03:43:44;;;;;;;19.63;15.07;;;;;;;;;;6217605;23;20246;-82
2024/03/03 03:46:11;;;;;;;22.37;16.50;;;;;;;;;;6192548;23;20172;-83
2024/03/03 03:48:38;;;;;;;18.23;14.47;;;;;;;;;;6217262;23;20187;-83
2024/03/03 03:51:07;;;;;;;20.57;16.07;;;;;;;;;;6244279;23;20193;-82
2024/03/03 03:53:36;;;;;;;22.43;16.93;;;;;;;;;;6192814;23;20243;-83
2024/03/03 03:56:04;;;;;;;20.77;16.43;;;;;;;;;;6192638;23;20189;-80
2024/03/03 03:58:32;;;;;;;20.50;16.80;;;;;;;;;;6217458;23;20234;-83
2024/03/03 04:01:03;;;;;;;20.70;17.50;;;;;;;;;;6217265;23;20173;-83
2024/03/03 04:03:33;;;;;;;21.97;16.67;;;;;;;;;;6192335;23;20172;-83
2024/03/03 04:06:01;;;;;;;21.17;16.60;;;;;;;;;;6216727;23;20161;-82
2024/03/03 04:08:28;;;;;;;17.80;15.30;;;;;;;;;;6216941;23;20169;-86
2024/03/03 04:10:57;;;;;;;18.77;16.03;;;;;;;;;;6216941;23;20168;-82
2024/03/03 04:13:25;;;;;;;17.97;14.83;;;;;;;;;;6217668;23;20152;-83
2024/03/03 04:15:52;;;;;;;16.90;14.27;;;;;;;;;;6192629;23;20268;-81
2024/03/03 04:18:19;;;;;;;18.30;15.27;;;;;;;;;;6192246;23;20376;-83
2024/03/03 04:20:53;;;;;;;19.00;14.50;;;;;;;;;;6243940;23;20560;-83
2024/03/03 04:23:23;;;;;;;19.53;14.70;;;;;;;;;;6217794;23;20169;-82
2024/03/03 04:25:52;;;;;;;14.17;11.77;;;;;;;;;;6217158;23;20213;-83
2024/03/03 04:28:19;;;;;;;13.70;10.93;;;;;;;;;;6217067;23;20234;-83
2024/03/03 04:30:50;;;;;;;14.30;12.47;;;;;;;;;;6217026;23;20239;-82
2024/03/03 04:33:18;;;;;;;16.53;12.67;;;;;;;;;;6243807;23;20218;-83
2024/03/03 04:35:45;;;;;;;14.00;11.47;;;;;;;;;;6216685;23;20643;-83
2024/03/03 04:38:12;;;;;;;15.07;12.17;;;;;;;;;;6216915;23;20191;-83
2024/03/03 04:40:43;;;;;;;13.77;11.33;;;;;;;;;;6192146;23;20204;-83
2024/03/03 04:43:11;;;;;;;14.30;11.27;;;;;;;;;;6192501;23;20165;-83
2024/03/03 04:45:39;;;;;;;12.77;10.37;;;;;;;;;;6216927;23;20184;-82
2024/03/03 04:48:07;;;;;;;13.30;10.30;;;;;;;;;;6192254;23;20168;-87
2024/03/03 04:50:41;;;;;;;11.37;10.07;;;;;;;;;;6217069;23;20243;-82
2024/03/03 04:53:11;;;;;;;11.37;9.63;;;;;;;;;;6216743;23;20165;-83
2024/03/03 04:55:39;;;;;;;13.13;10.60;;;;;;;;;;6192272;23;20199;-85
2024/03/03 04:58:07;;;;;;;12.37;10.40;;;;;;;;;;6216871;23;20169;-83
2024/03/03 05:00:34;;;;;;;12.83;10.40;;;;;;;;;;6191796;23;20181;-81
2024/03/03 05:03:03;;;;;;;12.00;10.53;;;;;;;;;;6190740;23;20176;-83
2024/03/03 05:05:33;;;;;;;12.73;10.70;;;;;;;;;;6191813;23;20226;-80
2024/03/03 05:08:01;;;;;;;14.20;11.47;;;;;;;;;;6216803;23;20162;-84
2024/03/03 05:10:30;;;;;;;11.63;10.33;;;;;;;;;;6245331;23;20162;-81
2024/03/03 05:12:57;;;;;;;13.67;11.43;;;;;;;;;;6212985;23;20201;-82
2024/03/03 05:15:26;;;;;;;15.13;11.60;;;;;;;;;;6214799;23;20260;-84
2024/03/03 05:17:53;;;;;;;13.40;11.10;;;;;;;;;;6213491;23;20170;-82
2024/03/03 05:20:20;;;;;;;12.67;10.63;;;;;;;;;;6213126;23;20261;-83
2024/03/03 05:22:47;;;;;;;12.37;11.03;;;;;;;;;;6212635;23;20284;-84
2024/03/03 05:25:18;;;;;;;12.90;10.07;;;;;;;;;;6213509;23;20165;-84
2024/03/03 05:27:45;;;;;;;13.93;11.13;;;;;;;;;;6188434;23;20170;-82
2024/03/03 05:30:14;;;;;;;11.80;10.50;;;;;;;;;;6213057;23;20635;-81
2024/03/03 05:32:41;;;;;;;11.20;9.73;;;;;;;;;;6213282;23;20189;-84
2024/03/03 05:35:14;;;;;;;12.30;10.07;;;;;;;;;;6213071;23;20169;-84
2024/03/03 05:37:41;;;;;;;10.87;8.73;;;;;;;;;;6213262;23;20196;-83
2024/03/03 05:40:12;;;;;;;10.03;8.97;;;;;;;;;;6214400;23;20154;-83
2024/03/03 05:42:43;;;;;;;10.20;8.80;;;;;;;;;;6214724;23;20196;-82
2024/03/03 05:45:13;;;;;;;9.87;8.67;;;;;;;;;;6212672;23;20177;-80
2024/03/03 05:47:43;;;;;;;10.17;9.00;;;;;;;;;;6213359;23;20539;-82
2024/03/03 05:50:10;;;;;;;10.63;8.67;;;;;;;;;;6214475;23;20173;-81
2024/03/03 05:52:39;;;;;;;10.33;8.80;;;;;;;;;;6188781;23;20169;-83
2024/03/03 05:55:08;;;;;;;9.63;8.07;;;;;;;;;;6212872;23;20207;-81
2024/03/03 05:57:35;;;;;;;9.17;8.10;;;;;;;;;;6212801;23;20201;-80
2024/03/03 06:00:05;;;;;;;9.27;8.27;;;;;;;;;;6187758;23;20174;-82
2024/03/03 06:02:35;;;;;;;9.83;8.13;;;;;;;;;;6212924;23;20208;-81
2024/03/03 06:05:04;;;;;;;9.03;8.03;;;;;;;;;;6187692;23;20170;-80
2024/03/03 06:07:31;;;;;;;8.97;8.07;;;;;;;;;;6213841;23;20170;-83
2024/03/03 06:10:01;;;;;;;8.63;7.50;;;;;;;;;;6211508;23;20578;-81
2024/03/03 06:12:28;;;;;;;7.70;6.70;;;;;;;;;;6217596;23;20201;-81
2024/03/03 06:14:58;;;;;;;6.67;6.03;;;;;;;;;;6217434;23;20219;-80
2024/03/03 06:17:26;;;;;;;6.47;5.80;;;;;;;;;;6217846;23;20631;-83
2024/03/03 06:19:54;;;;;;;6.13;5.53;;;;;;;;;;6216824;23;20245;-81
2024/03/03 06:22:21;;;;;;;5.73;5.17;;;;;;;;;;6217299;23;20196;-80
2024/03/03 06:24:48;;;;;;;6.33;5.27;;;;;;;;;;6192967;23;20169;-80
2024/03/03 06:27:15;;;;;;;5.70;5.00;;;;;;;;;;6192650;23;20177;-82
2024/03/03 06:29:44;;;;;;;6.03;4.17;;;;;;;;;;6243805;23;20175;-82
2024/03/03 06:32:12;;;;;;;5.33;4.83;;;;;;;;;;6244010;23;20165;-80
2024/03/03 06:34:40;;;;;;;5.17;4.53;;;;;;;;;;6216873;23;20175;-80
2024/03/03 06:37:10;;;;;;;4.63;4.10;;;;;;;;;;6216773;23;20193;-81
2024/03/03 06:39:37;;;;;;;5.30;4.53;;;;;;;;;;6243359;23;20215;-81
2024/03/03 06:42:05;;;;;;;4.63;4.23;;;;;;;;;;6217365;23;20169;-79
2024/03/03 06:44:33;;;;;;;4.27;3.87;;;;;;;;;;6191817;23;20168;-82
2024/03/03 06:47:02;;;;;;;4.33;3.70;;;;;;;;;;6192473;23;20176;-85
2024/03/03 06:49:31;;;;;;;4.00;3.60;;;;;;;;;;6243587;23;20165;-81
2024/03/03 06:51:58;;;;;;;4.10;3.63;;;;;;;;;;6192140;23;20161;-81
2024/03/03 06:54:30;;;;;;;4.07;3.67;;;;;;;;;;6192242;23;20225;-81
2024/03/03 06:57:04;;;;;;;4.10;3.70;;;;;;;;;;6192987;23;20215;-80
2024/03/03 06:59:32;;;;;;;5.27;4.27;;;;;;;;;;6191661;23;20759;-78
2024/03/03 07:02:01;;;;;;;4.80;4.30;;;;;;;;;;6243594;23;20525;-80
2024/03/03 07:04:32;;;;;;;5.80;4.77;;;;;;;;;;6216537;23;20165;-79
2024/03/03 07:06:59;;;;;;;5.37;4.83;;;;;;;;;;6217207;23;20177;-80
2024/03/03 07:09:26;;;;;;;5.07;4.50;;;;;;;;;;6191842;23;20171;-79
2024/03/03 07:11:54;;;;;;;5.67;4.60;;;;;;;;;;6216477;23;20303;-81
2024/03/03 07:14:23;;;;;;;5.13;4.53;;;;;;;;;;6191824;23;20177;-79
2024/03/03 07:16:51;;;;;;;6.97;4.93;;;;;;;;;;6215594;23;20193;-79
2024/03/03 07:19:18;;;;;;;4.67;4.07;;;;;;;;;;6191327;23;20168;-80
2024/03/03 07:21:46;;;;;;;4.50;3.90;;;;;;;;;;6242263;23;20219;-79
2024/03/03 07:24:13;;;;;;;4.10;3.70;;;;;;;;;;6215816;23;20180;-80
2024/03/03 07:26:40;;;;;;;4.20;3.33;;;;;;;;;;6191397;23;20181;-80
2024/03/03 07:29:08;;;;;;;3.63;3.33;;;;;;;;;;6216338;23;20177;-80
2024/03/03 07:31:38;;;;;;;3.57;2.90;;;;;;;;;;6217725;23;20145;-81
2024/03/03 07:34:06;;;;;;;4.47;2.60;;;;;;;;;;6216277;23;20480;-83
2024/03/03 07:36:33;;;;;;;3.30;3.00;;;;;;;;;;6216586;23;20670;-80
2024/03/03 07:39:00;;;;;;;3.80;3.10;;;;;;;;;;6190259;23;20638;-79
2024/03/03 07:41:27;;;;;;;3.03;2.70;;;;;;;;;;6242763;23;20220;-79
2024/03/03 07:43:54;;;;;;;3.13;2.60;;;;;;;;;;6191112;23;20169;-83
2024/03/03 07:46:22;;;;;;;2.87;2.67;;;;;;;;;;6242842;23;20167;-81
2024/03/03 07:48:50;;;;;;;3.27;2.30;;;;;;;;;;6242156;23;20184;-83
2024/03/03 07:51:21;;;;;;;4.57;2.73;;;;;;;;;;6215341;23;20193;-81
2024/03/03 07:53:49;;;;;;;2.30;2.10;;;;;;;;;;6215658;23;20521;-81
2024/03/03 07:56:16;;;;;;;4.23;2.23;;;;;;;;;;6241946;23;20243;-79
2024/03/03 07:58:44;;;;;;;2.97;2.30;;;;;;;;;;6216001;23;20170;-82
2024/03/03 08:01:11;;;;;;;2.20;2.00;;;;;;;;;;6188517;23;20233;-84
2024/03/03 08:03:38;;;;;;;2.97;2.00;;;;;;;;;;6214743;23;20197;-79
2024/03/03 08:06:06;;;;;;;2.03;1.83;;;;;;;;;;6242253;23;20236;-84
2024/03/03 08:08:33;;;;;;;2.03;1.83;;;;;;;;;;6242129;23;20231;-82
2024/03/03 08:11:01;;;;;;;2.80;2.07;;;;;;;;;;6241740;23;20237;-81
2024/03/03 08:13:28;;;;;;;2.37;2.17;;;;;;;;;;6215518;23;20167;-80
2024/03/03 08:15:56;;;;;;;3.47;3.17;;;;;;;;;;6241687;23;20257;-83
2024/03/03 08:18:24;;;;;;;4.80;3.43;;;;;;;;;;6242201;23;20994;-81
2024/03/03 08:20:52;;;;;;;4.30;3.60;;;;;;;;;;6242122;23;20570;-79
2024/03/03 08:23:19;;;;;;;3.87;3.57;;;;;;;;;;6241828;23;20190;-79
2024/03/03 08:25:46;;;;;;;4.20;3.80;;;;;;;;;;6241877;23;20168;-82
2024/03/03 08:28:13;;;;;;;4.33;3.43;;;;;;;;;;6241026;23;20659;-81
2024/03/03 08:30:40;;;;;;;3.87;3.07;;;;;;;;;;6241302;23;20246;-80
2024/03/03 08:33:07;;;;;;;3.13;2.83;;;;;;;;;;6241175;23;20163;-83
2024/03/03 08:35:35;;;;;;;3.87;2.80;;;;;;;;;;6241016;23;20214;-85
2024/03/03 08:38:02;;;;;;;3.37;3.07;;;;;;;;;;6214390;23;20198;-80
2024/03/03 08:40:30;;;;;;;3.00;2.70;;;;;;;;;;6214627;23;20174;-82
2024/03/03 08:42:58;;;;;;;3.13;2.53;;;;;;;;;;6214820;23;20174;-81
2024/03/03 08:45:26;;;;;;;3.70;2.10;;;;;;;;;;6216073;23;20255;-80
2024/03/03 08:47:53;;;;;;;2.40;2.20;;;;;;;;;;6243442;23;20196;-80
2024/03/03 08:50:21;;;;;;;2.40;2.20;;;;;;;;;;6243556;23;20161;-80
2024/03/03 08:52:48;;;;;;;1.83;1.70;;;;;;;;;;6243463;23;20175;-81
2024/03/03 08:55:15;;;;;;;2.00;1.50;;;;;;;;;;6216665;23;20167;-80
2024/03/03 08:57:42;;;;;;;2.60;1.50;;;;;;;;;;6216321;23;20223;-80
2024/03/03 09:00:12;;;;;;;2.73;1.50;;;;;;;;;;6216904;23;20199;-80
2024/03/03 09:02:40;;;;;;;1.53;1.40;;;;;;;;;;6216902;23;20164;-81
2024/03/03 09:05:11;;;;;;;2.00;1.30;;;;;;;;;;6217092;23;20167;-80
2024/03/03 09:07:39;;;;;;;1.30;1.20;;;;;;;;;;6218021;23;20507;-85
2024/03/03 09:10:07;;;;;;;3.83;1.50;;;;;;;;;;6217144;23;20169;-82
2024/03/03 09:12:35;;;;;;;1.57;1.40;;;;;;;;;;6217906;23;20223;-81
2024/03/03 09:15:02;;;;;;;1.97;1.70;;;;;;;;;;6217809;23;20806;-81
2024/03/03 09:17:29;;;;;;;1.63;1.30;;;;;;;;;;6192732;23;20224;-82
2024/03/03 09:19:56;;;;;;;2.27;1.90;;;;;;;;;;6191446;23;20168;-81
2024/03/03 09:22:24;;;;;;;1.53;1.43;;;;;;;;;;6243766;23;20258;-82
2024/03/03 09:24:52;;;;;;;2.27;1.30;;;;;;;;;;6217613;23;20242;-82
2024/03/03 09:27:20;;;;;;;1.30;1.20;;;;;;;;;;6193010;23;20169;-81
2024/03/03 09:29:46;;;;;;;1.33;1.23;;;;;;;;;;6216704;23;20169;-80
2024/03/03 09:32:16;;;;;;;1.50;1.30;;;;;;;;;;6217322;23;20169;-81
2024/03/03 09:34:43;;;;;;;2.23;1.50;;;;;;;;;;6244139;23;20165;-81
2024/03/03 09:37:11;;;;;;;1.63;1.53;;;;;;;;;;6217194;23;20189;-81
2024/03/03 09:39:38;;;;;;;1.87;1.73;;;;;;;;;;6243809;23;20161;-81
2024/03/03 09:42:06;;;;;;;1.73;1.40;;;;;;;;;;6217109;23;20177;-82
2024/03/03 09:44:43;;;;;;;1.70;1.60;;;;;;;;;;6192161;23;20169;-82
2024/03/03 09:47:14;;;;;;;1.77;1.60;;;;;;;;;;6243927;23;20604;-81
2024/03/03 09:49:45;;;;;;;1.33;1.00;;;;;;;;;;6243768;23;20149;-81
2024/03/03 09:52:13;;;;;;;1.53;1.13;;;;;;;;;;6217537;23;20176;-81
2024/03/03 09:54:41;;;;;;;1.50;1.07;;;;;;;;;;6217218;23;20632;-81
2024/03/03 09:57:12;;;;;;;1.00;0.90;;;;;;;;;;6243778;23;20636;-81
2024/03/03 09:59:40;;;;;;;1.10;1.00;;;;;;;;;;6217095;23;20165;-81
2024/03/03 10:02:18;;;;;;;1.20;1.10;;;;;;;;;;6217285;23;20161;-80
2024/03/03 10:04:51;;;;;;;0.73;0.73;;;;;;;;;;6214882;23;20188;-82
2024/03/03 10:07:21;;;;;;;1.10;0.87;;;;;;;;;;6243282;23;20169;-82
2024/03/03 10:09:54;;;;;;;1.67;1.00;;;;;;;;;;6191428;23;20683;-82
2024/03/03 10:12:22;;;;;;;1.90;1.00;;;;;;;;;;6215896;23;20201;-81
2024/03/03 10:14:55;;;;;;;1.03;0.97;;;;;;;;;;6216151;23;20162;-82
2024/03/03 10:17:27;;;;;;;1.50;1.40;;;;;;;;;;6216180;23;20257;-81
2024/03/03 10:19:58;;;;;;;1.13;1.03;;;;;;;;;;6191532;23;20169;-80
2024/03/03 10:22:25;;;;;;;1.10;1.00;;;;;;;;;;6242900;23;20181;-81
2024/03/03 10:25:05;;;;;;;0.80;0.80;;;;;;;;;;6216141;23;20173;-81
2024/03/03 10:27:33;;;;;;;0.90;0.90;;;;;;;;;;6243326;23;20176;-80
2024/03/03 10:30:03;;;;;;;1.37;1.00;;;;;;;;;;6191459;23;20203;-81
2024/03/03 10:32:31;;;;;;;1.03;0.90;;;;;;;;;;6191971;23;20161;-81
2024/03/03 10:35:00;;;;;;;1.20;1.10;;;;;;;;;;6216784;23;20172;-80
2024/03/03 10:37:28;;;;;;;2.00;1.10;;;;;;;;;;6217099;23;20243;-80
2024/03/03 10:39:55;;;;;;;1.50;1.10;;;;;;;;;;6191896;23;20192;-81
2024/03/03 10:42:23;;;;;;;0.87;0.83;;;;;;;;;;6192174;23;20239;-80
2024/03/03 10:44:50;;;;;;;1.27;1.00;;;;;;;;;;6242360;23;20173;-80
2024/03/03 10:47:17;;;;;;;0.80;0.80;;;;;;;;;;6216740;23;20192;-80
2024/03/03 10:49:49;;;;;;;1.30;1.20;;;;;;;;;;6243475;23;20600;-80
2024/03/03 10:52:17;;;;;;;1.77;1.00;;;;;;;;;;6244130;23;20169;-80
2024/03/03 10:54:45;;;;;;;1.03;1.00;;;;;;;;;;6243786;23;20619;-81
2024/03/03 10:57:16;;;;;;;1.00;1.00;;;;;;;;;;6217236;23;20185;-80
2024/03/03 10:59:44;;;;;;;1.30;1.20;;;;;;;;;;6243423;23;20165;-81
2024/03/03 11:02:12;;;;;;;1.97;1.13;;;;;;;;;;6217751;23;20208;-80
2024/03/03 11:04:41;;;;;;;1.40;1.30;;;;;;;;;;6217295;23;20244;-81
2024/03/03 11:07:09;;;;;;;2.23;1.60;;;;;;;;;;6216816;23;20222;-80
2024/03/03 11:09:37;;;;;;;2.87;1.43;;;;;;;;;;6192053;23;20177;-80
2024/03/03 11:12:06;;;;;;;1.43;1.20;;;;;;;;;;6191448;23;20193;-81
2024/03/03 11:14:46;;;;;;;1.90;1.40;;;;;;;;;;6216490;23;20165;-80
2024/03/03 11:17:17;;;;;;;2.33;1.50;;;;;;;;;;6243429;23;20768;-81
2024/03/03 11:19:48;;;;;;;4.13;2.47;;;;;;;;;;6216612;23;20172;-81
2024/03/03 11:22:17;;;;;;;1.53;1.10;;;;;;;;;;6216564;23;20192;-82
2024/03/03 11:24:52;;;;;;;1.30;1.10;;;;;;;;;;6192151;23;20196;-82
2024/03/03 11:27:23;;;;;;;2.10;1.07;;;;;;;;;;6217165;23;20162;-80
2024/03/03 11:29:51;;;;;;;1.43;1.03;;;;;;;;;;6243168;23;20232;-82
2024/03/03 11:32:18;;;;;;;1.90;1.20;;;;;;;;;;6191814;23;20169;-83
2024/03/03 11:34:46;;;;;;;1.33;1.10;;;;;;;;;;6217180;23;20160;-81
2024/03/03 11:37:14;;;;;;;1.20;1.00;;;;;;;;;;6191916;23;20663;-81
2024/03/03 11:39:52;;;;;;;1.33;1.00;;;;;;;;;;6243471;23;20189;-83
2024/03/03 11:42:32;;;;;;;1.77;1.10;;;;;;;;;;6243330;23;20164;-81
2024/03/03 11:44:59;;;;;;;1.77;1.10;;;;;;;;;;6216689;23;20631;-80
2024/03/03 11:47:34;;;;;;;1.03;0.93;;;;;;;;;;6192081;23;20187;-80
2024/03/03 11:50:22;;;;;;;0.80;0.80;;;;;;;;;;6217038;23;20624;-80
2024/03/03 11:52:50;;;;;;;1.10;1.00;;;;;;;;;;6242924;23;20848;-82
2024/03/03 11:55:29;;;;;;;1.60;1.00;;;;;;;;;;6242430;23;20177;-81
2024/03/03 11:58:01;;;;;;;2.43;1.13;;;;;;;;;;6216506;23;20189;-81
2024/03/03 12:00:30;;;;;;;1.20;0.80;;;;;;;;;;6216994;23;20243;-80
2024/03/03 12:02:58;;;;;;;0.80;0.80;;;;;;;;;;6242976;23;20165;-80
2024/03/03 12:05:28;;;;;;;1.10;0.97;;;;;;;;;;6215355;23;20179;-81
2024/03/03 12:07:56;;;;;;;1.20;0.90;;;;;;;;;;6215919;23;20165;-81
2024/03/03 12:10:25;;;;;;;1.53;0.90;;;;;;;;;;6215442;23;20170;-80
2024/03/03 12:12:54;;;;;;;1.17;0.70;;;;;;;;;;6215508;23;20671;-81
2024/03/03 12:15:24;;;;;;;2.33;1.00;;;;;;;;;;6190439;23;20493;-81
2024/03/03 12:17:52;;;;;;;1.03;0.80;;;;;;;;;;6242263;23;20204;-81
2024/03/03 12:20:20;;;;;;;1.10;0.90;;;;;;;;;;6215799;23;20170;-81
2024/03/03 12:22:49;;;;;;;1.10;1.00;;;;;;;;;;6215557;23;20224;-82
2024/03/03 12:25:20;;;;;;;2.40;1.10;;;;;;;;;;6215330;23;20178;-81
2024/03/03 12:27:51;;;;;;;2.67;1.00;;;;;;;;;;6242515;23;20166;-81
2024/03/03 12:30:31;;;;;;;1.63;0.80;;;;;;;;;;6215657;23;20248;-81
2024/03/03 12:33:00;;;;;;;0.90;0.63;;;;;;;;;;6215519;23;20297;-82
2024/03/03 12:35:27;;;;;;;1.63;0.90;;;;;;;;;;6215313;23;20314;-81
2024/03/03 12:37:55;;;;;;;1.07;0.73;;;;;;;;;;6241884;23;20186;-81
2024/03/03 12:40:26;;;;;;;1.43;0.90;;;;;;;;;;6241568;23;20614;-82
2024/03/03 12:42:54;;;;;;;1.33;0.80;;;;;;;;;;6241946;23;20232;-82
2024/03/03 12:45:24;;;;;;;2.30;0.97;;;;;;;;;;6241617;23;20187;-83
2024/03/03 12:47:52;;;;;;;0.93;0.83;;;;;;;;;;6215868;23;20222;-81
2024/03/03 12:50:21;;;;;;;1.00;0.90;;;;;;;;;;6241872;23;20166;-82
2024/03/03 12:52:50;;;;;;;1.40;0.90;;;;;;;;;;6215523;23;20161;-82
2024/03/03 12:55:24;;;;;;;1.23;0.90;;;;;;;;;;6215022;23;20603;-80
2024/03/03 12:57:52;;;;;;;1.90;1.07;;;;;;;;;;6215313;23;20187;-81
2024/03/03 13:00:22;;;;;;;1.20;0.90;;;;;;;;;;6214900;23;20217;-81
2024/03/03 13:02:51;;;;;;;2.37;1.10;;;;;;;;;;6215180;23;20170;-80
2024/03/03 13:05:19;;;;;;;1.17;1.00;;;;;;;;;;6214882;23;20161;-81
2024/03/03 13:07:49;;;;;;;1.33;1.10;;;;;;;;;;6241919;23;20190;-83
2024/03/03 13:10:21;;;;;;;2.03;1.20;;;;;;;;;;6214835;23;20191;-82
2024/03/03 13:12:53;;;;;;;2.00;0.90;;;;;;;;;;6240392;23;20188;-82
2024/03/03 13:15:21;;;;;;;1.60;1.00;;;;;;;;;;6240070;23;20170;-81
2024/03/03 13:18:08;;;;;;;8.27;1.00;;;;;;;;;;6213579;23;20687;-81
2024/03/03 13:20:36;;;;;;;1.97;0.80;;;;;;;;;;6240731;23;20241;-81
2024/03/03 13:23:11;;;;;;;1.73;1.23;;;;;;;;;;6188628;23;20194;-81
2024/03/03 13:25:42;;;;;;;1.87;1.10;;;;;;;;;;6214205;23;20157;-80
2024/03/03 13:28:13;;;;;;;1.40;1.10;;;;;;;;;;6213721;23;20172;-82
2024/03/03 13:30:41;;;;;;;0.90;0.80;;;;;;;;;;6214868;23;20161;-81
2024/03/03 13:33:11;;;;;;;1.20;0.90;;;;;;;;;;6241788;23;20156;-81
2024/03/03 13:35:38;;;;;;;0.90;0.70;;;;;;;;;;6215104;23;20175;-81
2024/03/03 13:38:05;;;;;;;1.50;0.93;;;;;;;;;;6241181;23;20187;-81
2024/03/03 13:40:33;;;;;;;2.30;1.00;;;;;;;;;;6241282;23;20172;-81
2024/03/03 13:43:01;;;;;;;1.30;0.90;;;;;;;;;;6215843;23;20178;-80
2024/03/03 13:45:31;;;;;;;1.20;1.10;;;;;;;;;;6241593;23;20625;-80
2024/03/03 13:48:13;;;;;;;0.93;0.80;;;;;;;;;;6241717;23;20165;-82
2024/03/03 13:50:41;;;;;;;2.00;1.10;;;;;;;;;;6241897;23;20158;-81
2024/03/03 13:53:09;;;;;;;0.90;0.70;;;;;;;;;;6190084;23;20194;-82
2024/03/03 13:55:37;;;;;;;0.80;0.70;;;;;;;;;;6241535;23;20612;-81
2024/03/03 13:58:07;;;;;;;1.07;0.60;;;;;;;;;;6241332;23;20232;-81
2024/03/03 14:00:34;;;;;;;2.63;0.80;;;;;;;;;;6214374;23;20174;-80
2024/03/03 14:03:04;;;;;;;1.43;1.00;;;;;;;;;;6215596;23;20171;-80
2024/03/03 14:05:33;;;;;;;2.33;1.53;;;;;;;;;;6241558;23;20167;-81
2024/03/03 14:08:00;;;;;;;1.57;1.30;;;;;;;;;;6241792;23;20172;-80
2024/03/03 14:10:27;;;;;;;1.57;0.90;;;;;;;;;;6215117;23;20177;-81
2024/03/03 14:12:55;;;;;;;2.37;1.90;;;;;;;;;;6171114;23;1670329;-80
2024/03/03 14:15:22;;;;;;;1.50;0.80;;;;;;;;;;6243487;23;20174;-81
2024/03/03 14:17:52;;;;;;;2.03;1.40;;;;;;;;;;6243803;23;20198;-82
2024/03/03 14:20:22;;;;;;;2.67;0.80;;;;;;;;;;6243162;23;20164;-81
2024/03/03 14:22:49;;;;;;;1.23;0.80;;;;;;;;;;6243473;23;20200;-80
2024/03/03 14:25:17;;;;;;;1.37;0.97;;;;;;;;;;6243207;23;20208;-81
2024/03/03 14:27:44;;;;;;;1.33;1.03;;;;;;;;;;6243811;23;20183;-81
2024/03/03 14:30:13;;;;;;;1.00;0.90;;;;;;;;;;6217119;23;20177;-81
2024/03/03 14:32:46;;;;;;;3.10;1.73;;;;;;;;;;6243949;23;20210;-82
2024/03/03 14:35:14;;;;;;;1.87;1.27;;;;;;;;;;6243308;23;20170;-82
2024/03/03 14:37:42;;;;;;;1.80;0.90;;;;;;;;;;6243475;23;20166;-81
2024/03/03 14:40:13;;;;;;;3.87;2.27;;;;;;;;;;6243326;23;20625;-82
2024/03/03 14:42:41;;;;;;;3.20;2.33;;;;;;;;;;6242905;23;20167;-82